sensor_id;sensor_type;location;lat;lon;timestamp;P1;durP1;ratioP1;P2;durP2;ratioP2
16845;SDS011;8539;53.188;8.696;2022-07-21T00:00:45;8.13;;;3.90;;
16845;SDS011;8539;53.188;8.696;2022-07-21T00:03:11;7.50;;;3.90;;
16845;SDS011;8539;53.188;8.696;2022-07-21T00:05:37;7.38;;;4.97;;
16845;SDS011;8539;53.188;8.696;2022-07-21T00:08:04;14.52;;;5.00;;
16845;SDS011;8539;53.188;8.696;2022-07-21T00:10:30;10.00;;;4.85;;
16845;SDS011;8539;53.188;8.696;2022-07-21T00:12:57;9.10;;;4.45;;
16845;SDS011;8539;53.188;8.696;2022-07-21T00:15:24;11.98;;;5.07;;
16845;SDS011;8539;53.188;8.696;2022-07-21T00:17:52;9.50;;;5.40;;
16845;SDS011;8539;53.188;8.696;2022-07-21T00:20:19;12.57;;;5.47;;
16845;SDS011;8539;53.188;8.696;2022-07-21T00:22:46;11.60;;;4.75;;
16845;SDS011;8539;53.188;8.696;2022-07-21T00:25:13;15.98;;;5.47;;
16845;SDS011;8539;53.188;8.696;2022-07-21T00:27:40;9.30;;;5.45;;
16845;SDS011;8539;53.188;8.696;2022-07-21T00:30:06;7.95;;;4.97;;
16845;SDS011;8539;53.188;8.696;2022-07-21T00:32:34;14.30;;;5.88;;
16845;SDS011;8539;53.188;8.696;2022-07-21T00:35:02;8.68;;;6.10;;
16845;SDS011;8539;53.188;8.696;2022-07-21T00:37:30;11.93;;;6.35;;
16845;SDS011;8539;53.188;8.696;2022-07-21T00:39:57;12.57;;;6.97;;
16845;SDS011;8539;53.188;8.696;2022-07-21T00:42:25;10.57;;;6.15;;
16845;SDS011;8539;53.188;8.696;2022-07-21T00:44:54;13.38;;;6.63;;
16845;SDS011;8539;53.188;8.696;2022-07-21T00:47:20;16.45;;;5.68;;
16845;SDS011;8539;53.188;8.696;2022-07-21T00:49:48;18.48;;;8.65;;
16845;SDS011;8539;53.188;8.696;2022-07-21T00:52:15;16.25;;;8.93;;
16845;SDS011;8539;53.188;8.696;2022-07-21T00:54:42;13.00;;;7.07;;
16845;SDS011;8539;53.188;8.696;2022-07-21T00:57:09;13.52;;;6.95;;
16845;SDS011;8539;53.188;8.696;2022-07-21T00:59:37;11.65;;;6.35;;
16845;SDS011;8539;53.188;8.696;2022-07-21T01:02:04;14.63;;;6.85;;
16845;SDS011;8539;53.188;8.696;2022-07-21T01:04:30;16.33;;;6.30;;
16845;SDS011;8539;53.188;8.696;2022-07-21T01:07:01;9.18;;;5.72;;
16845;SDS011;8539;53.188;8.696;2022-07-21T01:09:29;14.25;;;5.60;;
16845;SDS011;8539;53.188;8.696;2022-07-21T01:11:58;12.20;;;6.15;;
16845;SDS011;8539;53.188;8.696;2022-07-21T01:14:27;10.30;;;5.80;;
16845;SDS011;8539;53.188;8.696;2022-07-21T01:16:53;10.02;;;6.20;;
16845;SDS011;8539;53.188;8.696;2022-07-21T01:19:20;12.02;;;7.57;;
16845;SDS011;8539;53.188;8.696;2022-07-21T01:21:47;9.85;;;6.57;;
16845;SDS011;8539;53.188;8.696;2022-07-21T01:24:14;12.68;;;6.75;;
16845;SDS011;8539;53.188;8.696;2022-07-21T01:29:14;9.68;;;5.80;;
16845;SDS011;8539;53.188;8.696;2022-07-21T01:31:42;8.50;;;6.65;;
16845;SDS011;8539;53.188;8.696;2022-07-21T01:34:09;11.52;;;6.05;;
16845;SDS011;8539;53.188;8.696;2022-07-21T01:36:37;8.82;;;5.97;;
16845;SDS011;8539;53.188;8.696;2022-07-21T01:39:04;8.57;;;5.97;;
16845;SDS011;8539;53.188;8.696;2022-07-21T01:41:50;10.52;;;5.95;;
16845;SDS011;8539;53.188;8.696;2022-07-21T01:44:16;10.90;;;6.40;;
16845;SDS011;8539;53.188;8.696;2022-07-21T01:46:44;8.15;;;5.68;;
16845;SDS011;8539;53.188;8.696;2022-07-21T01:49:12;13.20;;;6.18;;
16845;SDS011;8539;53.188;8.696;2022-07-21T01:51:40;12.95;;;6.18;;
16845;SDS011;8539;53.188;8.696;2022-07-21T01:54:08;8.68;;;5.60;;
16845;SDS011;8539;53.188;8.696;2022-07-21T01:56:36;11.07;;;5.68;;
16845;SDS011;8539;53.188;8.696;2022-07-21T01:59:04;12.25;;;6.93;;
16845;SDS011;8539;53.188;8.696;2022-07-21T02:01:32;9.02;;;6.22;;
16845;SDS011;8539;53.188;8.696;2022-07-21T02:03:59;8.65;;;5.18;;
16845;SDS011;8539;53.188;8.696;2022-07-21T02:06:28;9.68;;;4.97;;
16845;SDS011;8539;53.188;8.696;2022-07-21T02:08:55;15.25;;;5.38;;
16845;SDS011;8539;53.188;8.696;2022-07-21T02:11:21;6.97;;;4.72;;
16845;SDS011;8539;53.188;8.696;2022-07-21T02:13:48;10.32;;;4.75;;
16845;SDS011;8539;53.188;8.696;2022-07-21T02:16:14;9.52;;;4.95;;
16845;SDS011;8539;53.188;8.696;2022-07-21T02:18:41;6.75;;;4.10;;
16845;SDS011;8539;53.188;8.696;2022-07-21T02:21:07;5.38;;;3.58;;
16845;SDS011;8539;53.188;8.696;2022-07-21T02:23:34;8.15;;;3.90;;
16845;SDS011;8539;53.188;8.696;2022-07-21T02:26:00;4.82;;;3.60;;
16845;SDS011;8539;53.188;8.696;2022-07-21T02:28:26;8.32;;;4.05;;
16845;SDS011;8539;53.188;8.696;2022-07-21T02:30:53;11.77;;;4.07;;
16845;SDS011;8539;53.188;8.696;2022-07-21T02:33:20;5.00;;;3.40;;
16845;SDS011;8539;53.188;8.696;2022-07-21T02:35:54;9.80;;;4.43;;
16845;SDS011;8539;53.188;8.696;2022-07-21T02:38:21;7.03;;;3.80;;
16845;SDS011;8539;53.188;8.696;2022-07-21T02:40:47;4.75;;;3.55;;
16845;SDS011;8539;53.188;8.696;2022-07-21T02:43:13;7.57;;;3.53;;
16845;SDS011;8539;53.188;8.696;2022-07-21T02:45:39;7.18;;;3.33;;
16845;SDS011;8539;53.188;8.696;2022-07-21T02:48:08;7.75;;;3.10;;
16845;SDS011;8539;53.188;8.696;2022-07-21T02:50:36;5.22;;;3.35;;
16845;SDS011;8539;53.188;8.696;2022-07-21T02:53:11;5.40;;;3.47;;
16845;SDS011;8539;53.188;8.696;2022-07-21T02:55:39;4.70;;;3.08;;
16845;SDS011;8539;53.188;8.696;2022-07-21T02:58:14;7.07;;;3.70;;
16845;SDS011;8539;53.188;8.696;2022-07-21T03:03:18;4.72;;;3.03;;
16845;SDS011;8539;53.188;8.696;2022-07-21T03:05:46;6.15;;;3.20;;
16845;SDS011;8539;53.188;8.696;2022-07-21T03:08:12;3.55;;;2.85;;
16845;SDS011;8539;53.188;8.696;2022-07-21T03:10:39;5.38;;;3.10;;
16845;SDS011;8539;53.188;8.696;2022-07-21T03:13:06;5.10;;;3.42;;
16845;SDS011;8539;53.188;8.696;2022-07-21T03:15:33;5.00;;;2.97;;
16845;SDS011;8539;53.188;8.696;2022-07-21T03:18:00;6.43;;;3.00;;
16845;SDS011;8539;53.188;8.696;2022-07-21T03:20:27;4.80;;;3.17;;
16845;SDS011;8539;53.188;8.696;2022-07-21T03:22:58;6.30;;;3.95;;
16845;SDS011;8539;53.188;8.696;2022-07-21T03:25:24;6.13;;;3.58;;
16845;SDS011;8539;53.188;8.696;2022-07-21T03:27:51;3.70;;;3.08;;
16845;SDS011;8539;53.188;8.696;2022-07-21T03:30:18;8.15;;;3.30;;
16845;SDS011;8539;53.188;8.696;2022-07-21T03:32:45;8.02;;;4.07;;
16845;SDS011;8539;53.188;8.696;2022-07-21T03:35:12;5.45;;;3.47;;
16845;SDS011;8539;53.188;8.696;2022-07-21T03:37:51;6.28;;;3.72;;
16845;SDS011;8539;53.188;8.696;2022-07-21T03:40:20;6.35;;;3.70;;
16845;SDS011;8539;53.188;8.696;2022-07-21T03:42:53;6.22;;;3.90;;
16845;SDS011;8539;53.188;8.696;2022-07-21T03:45:22;5.43;;;3.63;;
16845;SDS011;8539;53.188;8.696;2022-07-21T03:47:49;5.63;;;3.90;;
16845;SDS011;8539;53.188;8.696;2022-07-21T03:50:15;7.05;;;3.95;;
16845;SDS011;8539;53.188;8.696;2022-07-21T03:52:43;5.68;;;3.92;;
16845;SDS011;8539;53.188;8.696;2022-07-21T03:55:11;7.40;;;4.43;;
16845;SDS011;8539;53.188;8.696;2022-07-21T03:57:41;7.38;;;4.35;;
16845;SDS011;8539;53.188;8.696;2022-07-21T04:00:11;7.72;;;4.97;;
16845;SDS011;8539;53.188;8.696;2022-07-21T04:02:40;5.15;;;3.75;;
16845;SDS011;8539;53.188;8.696;2022-07-21T04:05:11;8.45;;;4.43;;
16845;SDS011;8539;53.188;8.696;2022-07-21T04:07:38;9.02;;;5.15;;
16845;SDS011;8539;53.188;8.696;2022-07-21T04:10:07;7.40;;;4.10;;
16845;SDS011;8539;53.188;8.696;2022-07-21T04:12:34;8.68;;;3.90;;
16845;SDS011;8539;53.188;8.696;2022-07-21T04:15:00;8.40;;;4.57;;
16845;SDS011;8539;53.188;8.696;2022-07-21T04:17:27;6.57;;;4.63;;
16845;SDS011;8539;53.188;8.696;2022-07-21T04:19:53;5.75;;;4.40;;
16845;SDS011;8539;53.188;8.696;2022-07-21T04:22:19;8.50;;;5.43;;
16845;SDS011;8539;53.188;8.696;2022-07-21T04:24:45;6.53;;;4.75;;
16845;SDS011;8539;53.188;8.696;2022-07-21T04:27:11;9.38;;;5.53;;
16845;SDS011;8539;53.188;8.696;2022-07-21T04:29:38;9.65;;;5.28;;
16845;SDS011;8539;53.188;8.696;2022-07-21T04:32:04;7.45;;;4.63;;
16845;SDS011;8539;53.188;8.696;2022-07-21T04:34:31;8.32;;;6.00;;
16845;SDS011;8539;53.188;8.696;2022-07-21T04:36:58;8.35;;;6.40;;
16845;SDS011;8539;53.188;8.696;2022-07-21T04:39:24;7.80;;;5.82;;
16845;SDS011;8539;53.188;8.696;2022-07-21T04:41:50;6.93;;;6.03;;
16845;SDS011;8539;53.188;8.696;2022-07-21T04:44:17;8.63;;;6.85;;
16845;SDS011;8539;53.188;8.696;2022-07-21T04:46:43;12.15;;;8.40;;
16845;SDS011;8539;53.188;8.696;2022-07-21T04:49:09;9.55;;;7.32;;
16845;SDS011;8539;53.188;8.696;2022-07-21T04:51:35;10.70;;;7.35;;
16845;SDS011;8539;53.188;8.696;2022-07-21T04:54:01;10.82;;;7.47;;
16845;SDS011;8539;53.188;8.696;2022-07-21T04:56:28;11.05;;;7.32;;
16845;SDS011;8539;53.188;8.696;2022-07-21T04:58:54;12.02;;;8.38;;
16845;SDS011;8539;53.188;8.696;2022-07-21T05:01:20;15.10;;;8.90;;
16845;SDS011;8539;53.188;8.696;2022-07-21T05:03:47;7.90;;;6.85;;
16845;SDS011;8539;53.188;8.696;2022-07-21T05:06:13;14.88;;;7.57;;
16845;SDS011;8539;53.188;8.696;2022-07-21T05:08:39;12.52;;;8.63;;
16845;SDS011;8539;53.188;8.696;2022-07-21T05:11:09;11.13;;;7.38;;
16845;SDS011;8539;53.188;8.696;2022-07-21T05:13:35;13.23;;;8.30;;
16845;SDS011;8539;53.188;8.696;2022-07-21T05:16:01;15.15;;;8.57;;
16845;SDS011;8539;53.188;8.696;2022-07-21T05:18:27;13.23;;;8.73;;
16845;SDS011;8539;53.188;8.696;2022-07-21T05:20:53;11.30;;;7.80;;
16845;SDS011;8539;53.188;8.696;2022-07-21T05:23:20;11.70;;;8.40;;
16845;SDS011;8539;53.188;8.696;2022-07-21T05:25:46;11.82;;;7.55;;
16845;SDS011;8539;53.188;8.696;2022-07-21T05:28:12;10.57;;;8.13;;
16845;SDS011;8539;53.188;8.696;2022-07-21T05:30:38;17.08;;;9.05;;
16845;SDS011;8539;53.188;8.696;2022-07-21T05:33:04;12.63;;;8.93;;
16845;SDS011;8539;53.188;8.696;2022-07-21T05:35:31;14.52;;;8.30;;
16845;SDS011;8539;53.188;8.696;2022-07-21T05:37:57;16.17;;;9.15;;
16845;SDS011;8539;53.188;8.696;2022-07-21T05:40:23;13.90;;;8.20;;
16845;SDS011;8539;53.188;8.696;2022-07-21T05:42:49;13.50;;;8.73;;
16845;SDS011;8539;53.188;8.696;2022-07-21T05:45:16;16.13;;;8.60;;
16845;SDS011;8539;53.188;8.696;2022-07-21T05:47:42;14.38;;;8.30;;
16845;SDS011;8539;53.188;8.696;2022-07-21T05:50:09;12.48;;;9.93;;
16845;SDS011;8539;53.188;8.696;2022-07-21T05:52:36;10.93;;;7.95;;
16845;SDS011;8539;53.188;8.696;2022-07-21T05:55:02;10.52;;;9.10;;
16845;SDS011;8539;53.188;8.696;2022-07-21T05:57:29;13.52;;;9.07;;
16845;SDS011;8539;53.188;8.696;2022-07-21T05:59:56;13.63;;;9.02;;
16845;SDS011;8539;53.188;8.696;2022-07-21T06:02:23;11.73;;;9.57;;
16845;SDS011;8539;53.188;8.696;2022-07-21T06:04:50;12.27;;;8.73;;
16845;SDS011;8539;53.188;8.696;2022-07-21T06:07:16;11.60;;;9.40;;
16845;SDS011;8539;53.188;8.696;2022-07-21T06:09:42;11.25;;;9.48;;
16845;SDS011;8539;53.188;8.696;2022-07-21T06:12:09;13.02;;;9.70;;
16845;SDS011;8539;53.188;8.696;2022-07-21T06:14:35;13.90;;;10.95;;
16845;SDS011;8539;53.188;8.696;2022-07-21T06:17:01;16.30;;;9.45;;
16845;SDS011;8539;53.188;8.696;2022-07-21T06:19:27;11.68;;;9.60;;
16845;SDS011;8539;53.188;8.696;2022-07-21T06:21:54;14.30;;;10.45;;
16845;SDS011;8539;53.188;8.696;2022-07-21T06:24:20;13.13;;;9.68;;
16845;SDS011;8539;53.188;8.696;2022-07-21T06:26:48;13.73;;;10.23;;
16845;SDS011;8539;53.188;8.696;2022-07-21T06:29:14;12.70;;;9.48;;
16845;SDS011;8539;53.188;8.696;2022-07-21T06:31:40;11.88;;;9.45;;
16845;SDS011;8539;53.188;8.696;2022-07-21T06:34:07;16.90;;;10.50;;
16845;SDS011;8539;53.188;8.696;2022-07-21T06:36:33;16.38;;;10.57;;
16845;SDS011;8539;53.188;8.696;2022-07-21T06:38:59;14.25;;;10.60;;
16845;SDS011;8539;53.188;8.696;2022-07-21T06:41:26;11.93;;;10.43;;
16845;SDS011;8539;53.188;8.696;2022-07-21T06:43:52;12.50;;;11.30;;
16845;SDS011;8539;53.188;8.696;2022-07-21T06:46:18;16.73;;;11.45;;
16845;SDS011;8539;53.188;8.696;2022-07-21T06:48:44;14.73;;;11.55;;
16845;SDS011;8539;53.188;8.696;2022-07-21T06:51:11;16.42;;;12.13;;
16845;SDS011;8539;53.188;8.696;2022-07-21T06:53:37;16.15;;;13.93;;
16845;SDS011;8539;53.188;8.696;2022-07-21T06:56:03;14.10;;;12.30;;
16845;SDS011;8539;53.188;8.696;2022-07-21T06:58:30;15.38;;;13.23;;
16845;SDS011;8539;53.188;8.696;2022-07-21T07:00:58;23.33;;;14.63;;
16845;SDS011;8539;53.188;8.696;2022-07-21T07:03:24;16.23;;;12.82;;
16845;SDS011;8539;53.188;8.696;2022-07-21T07:05:51;18.33;;;13.90;;
16845;SDS011;8539;53.188;8.696;2022-07-21T07:08:17;16.55;;;14.82;;
16845;SDS011;8539;53.188;8.696;2022-07-21T07:10:44;23.10;;;15.98;;
16845;SDS011;8539;53.188;8.696;2022-07-21T07:13:12;17.20;;;15.20;;
16845;SDS011;8539;53.188;8.696;2022-07-21T07:15:39;24.05;;;16.92;;
16845;SDS011;8539;53.188;8.696;2022-07-21T07:18:05;22.85;;;15.95;;
16845;SDS011;8539;53.188;8.696;2022-07-21T07:20:32;22.85;;;17.35;;
16845;SDS011;8539;53.188;8.696;2022-07-21T07:22:58;19.77;;;16.02;;
16845;SDS011;8539;53.188;8.696;2022-07-21T07:25:25;23.70;;;18.02;;
16845;SDS011;8539;53.188;8.696;2022-07-21T07:27:51;18.55;;;16.67;;
16845;SDS011;8539;53.188;8.696;2022-07-21T07:30:19;23.30;;;15.90;;
16845;SDS011;8539;53.188;8.696;2022-07-21T07:32:45;20.85;;;16.95;;
16845;SDS011;8539;53.188;8.696;2022-07-21T07:35:15;19.90;;;17.80;;
16845;SDS011;8539;53.188;8.696;2022-07-21T07:37:42;22.42;;;16.10;;
16845;SDS011;8539;53.188;8.696;2022-07-21T07:40:10;22.38;;;17.33;;
16845;SDS011;8539;53.188;8.696;2022-07-21T07:42:38;22.55;;;17.38;;
16845;SDS011;8539;53.188;8.696;2022-07-21T07:45:06;19.20;;;17.08;;
16845;SDS011;8539;53.188;8.696;2022-07-21T07:47:33;18.48;;;16.42;;
16845;SDS011;8539;53.188;8.696;2022-07-21T07:50:00;21.08;;;17.40;;
16845;SDS011;8539;53.188;8.696;2022-07-21T07:52:26;20.92;;;16.98;;
16845;SDS011;8539;53.188;8.696;2022-07-21T07:54:54;19.45;;;16.85;;
16845;SDS011;8539;53.188;8.696;2022-07-21T07:57:22;19.00;;;16.83;;
16845;SDS011;8539;53.188;8.696;2022-07-21T07:59:48;23.67;;;17.65;;
16845;SDS011;8539;53.188;8.696;2022-07-21T08:02:14;20.30;;;17.90;;
16845;SDS011;8539;53.188;8.696;2022-07-21T08:04:41;18.27;;;15.20;;
16845;SDS011;8539;53.188;8.696;2022-07-21T08:07:07;22.25;;;17.17;;
16845;SDS011;8539;53.188;8.696;2022-07-21T08:09:34;19.90;;;17.00;;
16845;SDS011;8539;53.188;8.696;2022-07-21T08:12:00;19.30;;;16.17;;
16845;SDS011;8539;53.188;8.696;2022-07-21T08:14:26;18.17;;;14.43;;
16845;SDS011;8539;53.188;8.696;2022-07-21T08:16:53;15.18;;;13.57;;
16845;SDS011;8539;53.188;8.696;2022-07-21T08:19:19;16.98;;;14.02;;
16845;SDS011;8539;53.188;8.696;2022-07-21T08:21:45;18.00;;;13.15;;
16845;SDS011;8539;53.188;8.696;2022-07-21T08:24:11;14.10;;;12.68;;
16845;SDS011;8539;53.188;8.696;2022-07-21T08:26:37;15.20;;;11.25;;
16845;SDS011;8539;53.188;8.696;2022-07-21T08:29:03;15.07;;;13.38;;
16845;SDS011;8539;53.188;8.696;2022-07-21T08:31:30;15.68;;;13.45;;
16845;SDS011;8539;53.188;8.696;2022-07-21T08:33:56;14.07;;;12.70;;
16845;SDS011;8539;53.188;8.696;2022-07-21T08:36:23;12.55;;;11.30;;
16845;SDS011;8539;53.188;8.696;2022-07-21T08:38:49;13.93;;;12.57;;
16845;SDS011;8539;53.188;8.696;2022-07-21T08:41:15;12.32;;;10.77;;
16845;SDS011;8539;53.188;8.696;2022-07-21T08:43:41;10.13;;;8.75;;
16845;SDS011;8539;53.188;8.696;2022-07-21T08:46:08;9.48;;;8.52;;
16845;SDS011;8539;53.188;8.696;2022-07-21T08:48:35;11.13;;;8.90;;
16845;SDS011;8539;53.188;8.696;2022-07-21T08:51:02;10.50;;;8.35;;
16845;SDS011;8539;53.188;8.696;2022-07-21T08:53:28;9.35;;;8.45;;
16845;SDS011;8539;53.188;8.696;2022-07-21T08:55:55;9.88;;;8.82;;
16845;SDS011;8539;53.188;8.696;2022-07-21T08:58:21;9.27;;;8.35;;
16845;SDS011;8539;53.188;8.696;2022-07-21T09:00:48;9.02;;;7.45;;
16845;SDS011;8539;53.188;8.696;2022-07-21T09:03:16;8.85;;;8.00;;
16845;SDS011;8539;53.188;8.696;2022-07-21T09:05:58;15.73;;;9.23;;
16845;SDS011;8539;53.188;8.696;2022-07-21T09:11:17;9.50;;;8.50;;
16845;SDS011;8539;53.188;8.696;2022-07-21T09:13:47;9.98;;;9.02;;
16845;SDS011;8539;53.188;8.696;2022-07-21T09:16:34;10.20;;;9.20;;
16845;SDS011;8539;53.188;8.696;2022-07-21T09:19:05;12.50;;;9.77;;
16845;SDS011;8539;53.188;8.696;2022-07-21T09:21:35;10.95;;;9.90;;
16845;SDS011;8539;53.188;8.696;2022-07-21T09:29:48;11.68;;;9.95;;
16845;SDS011;8539;53.188;8.696;2022-07-21T09:32:23;10.57;;;9.30;;
16845;SDS011;8539;53.188;8.696;2022-07-21T09:34:52;11.10;;;9.85;;
16845;SDS011;8539;53.188;8.696;2022-07-21T09:37:36;11.82;;;10.48;;
16845;SDS011;8539;53.188;8.696;2022-07-21T09:40:07;12.30;;;10.48;;
16845;SDS011;8539;53.188;8.696;2022-07-21T09:42:39;11.73;;;10.63;;
16845;SDS011;8539;53.188;8.696;2022-07-21T09:45:23;10.50;;;9.50;;
16845;SDS011;8539;53.188;8.696;2022-07-21T09:47:50;10.48;;;9.48;;
16845;SDS011;8539;53.188;8.696;2022-07-21T09:50:16;9.68;;;8.75;;
16845;SDS011;8539;53.188;8.696;2022-07-21T09:52:43;10.95;;;9.15;;
16845;SDS011;8539;53.188;8.696;2022-07-21T09:55:14;8.63;;;7.72;;
16845;SDS011;8539;53.188;8.696;2022-07-21T09:57:41;9.23;;;8.32;;
16845;SDS011;8539;53.188;8.696;2022-07-21T10:00:13;7.90;;;7.20;;
16845;SDS011;8539;53.188;8.696;2022-07-21T10:02:42;9.25;;;8.35;;
16845;SDS011;8539;53.188;8.696;2022-07-21T10:05:10;7.85;;;7.10;;
16845;SDS011;8539;53.188;8.696;2022-07-21T10:07:40;7.38;;;6.68;;
16845;SDS011;8539;53.188;8.696;2022-07-21T10:10:09;9.50;;;8.57;;
16845;SDS011;8539;53.188;8.696;2022-07-21T10:12:37;9.50;;;8.23;;
16845;SDS011;8539;53.188;8.696;2022-07-21T10:15:03;10.60;;;9.60;;
16845;SDS011;8539;53.188;8.696;2022-07-21T10:17:30;11.80;;;9.45;;
16845;SDS011;8539;53.188;8.696;2022-07-21T10:22:40;10.10;;;9.20;;
16845;SDS011;8539;53.188;8.696;2022-07-21T10:25:28;12.70;;;10.15;;
16845;SDS011;8539;53.188;8.696;2022-07-21T10:30:37;9.70;;;8.80;;
16845;SDS011;8539;53.188;8.696;2022-07-21T10:33:13;9.68;;;8.77;;
16845;SDS011;8539;53.188;8.696;2022-07-21T10:35:44;10.30;;;9.30;;
16845;SDS011;8539;53.188;8.696;2022-07-21T10:38:31;8.98;;;8.02;;
16845;SDS011;8539;53.188;8.696;2022-07-21T10:40:59;10.13;;;8.07;;
16845;SDS011;8539;53.188;8.696;2022-07-21T10:45:54;8.68;;;7.45;;
16845;SDS011;8539;53.188;8.696;2022-07-21T10:51:03;10.02;;;9.02;;
16845;SDS011;8539;53.188;8.696;2022-07-21T10:53:32;9.48;;;8.57;;
16845;SDS011;8539;53.188;8.696;2022-07-21T10:55:59;8.93;;;8.02;;
16845;SDS011;8539;53.188;8.696;2022-07-21T10:58:27;10.50;;;9.52;;
16845;SDS011;8539;53.188;8.696;2022-07-21T11:01:04;8.80;;;7.95;;
16845;SDS011;8539;53.188;8.696;2022-07-21T11:06:14;11.50;;;10.07;;
16845;SDS011;8539;53.188;8.696;2022-07-21T11:08:49;11.25;;;10.13;;
16845;SDS011;8539;53.188;8.696;2022-07-21T11:19:25;14.23;;;8.82;;
16845;SDS011;8539;53.188;8.696;2022-07-21T11:21:55;10.02;;;9.13;;
16845;SDS011;8539;53.188;8.696;2022-07-21T11:24:23;11.65;;;8.93;;
16845;SDS011;8539;53.188;8.696;2022-07-21T11:27:01;10.30;;;9.05;;
16845;SDS011;8539;53.188;8.696;2022-07-21T11:29:33;9.02;;;8.13;;
16845;SDS011;8539;53.188;8.696;2022-07-21T11:32:01;9.70;;;8.73;;
16845;SDS011;8539;53.188;8.696;2022-07-21T11:40:05;12.25;;;10.95;;
16845;SDS011;8539;53.188;8.696;2022-07-21T11:42:34;11.50;;;10.32;;
16845;SDS011;8539;53.188;8.696;2022-07-21T11:45:02;11.10;;;10.05;;
16845;SDS011;8539;53.188;8.696;2022-07-21T11:47:28;10.75;;;9.45;;
16845;SDS011;8539;53.188;8.696;2022-07-21T11:49:56;10.52;;;9.52;;
16845;SDS011;8539;53.188;8.696;2022-07-21T11:52:27;11.30;;;10.07;;
16845;SDS011;8539;53.188;8.696;2022-07-21T11:54:55;9.85;;;8.95;;
16845;SDS011;8539;53.188;8.696;2022-07-21T11:57:24;9.95;;;8.88;;
16845;SDS011;8539;53.188;8.696;2022-07-21T11:59:51;10.90;;;9.80;;
16845;SDS011;8539;53.188;8.696;2022-07-21T12:02:21;13.07;;;10.38;;
16845;SDS011;8539;53.188;8.696;2022-07-21T12:09:54;12.23;;;10.88;;
16845;SDS011;8539;53.188;8.696;2022-07-21T12:14:57;11.73;;;10.45;;
16845;SDS011;8539;53.188;8.696;2022-07-21T12:17:55;12.43;;;9.43;;
16845;SDS011;8539;53.188;8.696;2022-07-21T12:20:28;9.68;;;8.63;;
16845;SDS011;8539;53.188;8.696;2022-07-21T12:23:00;11.23;;;9.27;;
16845;SDS011;8539;53.188;8.696;2022-07-21T12:25:48;11.63;;;8.85;;
16845;SDS011;8539;53.188;8.696;2022-07-21T12:28:15;13.48;;;9.73;;
16845;SDS011;8539;53.188;8.696;2022-07-21T12:30:42;9.90;;;8.90;;
16845;SDS011;8539;53.188;8.696;2022-07-21T12:33:14;11.30;;;10.20;;
16845;SDS011;8539;53.188;8.696;2022-07-21T12:35:42;10.02;;;9.13;;
16845;SDS011;8539;53.188;8.696;2022-07-21T12:38:10;11.18;;;10.05;;
16845;SDS011;8539;53.188;8.696;2022-07-21T12:40:43;11.23;;;9.20;;
16845;SDS011;8539;53.188;8.696;2022-07-21T12:43:17;14.35;;;10.93;;
16845;SDS011;8539;53.188;8.696;2022-07-21T12:48:29;12.30;;;11.00;;
16845;SDS011;8539;53.188;8.696;2022-07-21T12:51:14;10.93;;;9.90;;
16845;SDS011;8539;53.188;8.696;2022-07-21T12:53:42;11.38;;;9.77;;
16845;SDS011;8539;53.188;8.696;2022-07-21T12:56:11;12.30;;;10.98;;
16845;SDS011;8539;53.188;8.696;2022-07-21T12:58:40;11.30;;;10.25;;
16845;SDS011;8539;53.188;8.696;2022-07-21T13:01:11;13.10;;;11.70;;
16845;SDS011;8539;53.188;8.696;2022-07-21T13:03:38;11.95;;;10.85;;
16845;SDS011;8539;53.188;8.696;2022-07-21T13:06:05;13.43;;;11.93;;
16845;SDS011;8539;53.188;8.696;2022-07-21T13:08:33;12.40;;;10.93;;
16845;SDS011;8539;53.188;8.696;2022-07-21T13:10:59;11.40;;;10.30;;
16845;SDS011;8539;53.188;8.696;2022-07-21T13:13:26;12.25;;;10.10;;
16845;SDS011;8539;53.188;8.696;2022-07-21T13:15:54;10.43;;;9.48;;
16845;SDS011;8539;53.188;8.696;2022-07-21T13:18:21;12.32;;;9.35;;
16845;SDS011;8539;53.188;8.696;2022-07-21T13:20:48;11.50;;;9.77;;
16845;SDS011;8539;53.188;8.696;2022-07-21T13:23:15;11.27;;;9.18;;
16845;SDS011;8539;53.188;8.696;2022-07-21T13:25:41;9.77;;;8.77;;
16845;SDS011;8539;53.188;8.696;2022-07-21T13:28:08;8.98;;;7.97;;
16845;SDS011;8539;53.188;8.696;2022-07-21T13:30:34;10.93;;;9.63;;
16845;SDS011;8539;53.188;8.696;2022-07-21T13:33:00;11.73;;;9.40;;
16845;SDS011;8539;53.188;8.696;2022-07-21T13:35:26;12.25;;;8.57;;
16845;SDS011;8539;53.188;8.696;2022-07-21T13:37:54;11.68;;;9.60;;
16845;SDS011;8539;53.188;8.696;2022-07-21T13:40:22;12.98;;;10.43;;
16845;SDS011;8539;53.188;8.696;2022-07-21T13:42:48;12.93;;;11.63;;
16845;SDS011;8539;53.188;8.696;2022-07-21T13:45:14;13.68;;;10.75;;
16845;SDS011;8539;53.188;8.696;2022-07-21T13:47:44;11.80;;;10.70;;
16845;SDS011;8539;53.188;8.696;2022-07-21T13:50:11;13.63;;;12.23;;
16845;SDS011;8539;53.188;8.696;2022-07-21T13:52:37;16.25;;;12.77;;
16845;SDS011;8539;53.188;8.696;2022-07-21T13:55:06;17.88;;;12.65;;
16845;SDS011;8539;53.188;8.696;2022-07-21T13:57:34;15.52;;;13.93;;
16845;SDS011;8539;53.188;8.696;2022-07-21T14:00:03;15.70;;;13.23;;
16845;SDS011;8539;53.188;8.696;2022-07-21T14:02:34;17.55;;;14.38;;
16845;SDS011;8539;53.188;8.696;2022-07-21T14:05:00;15.15;;;13.63;;
16845;SDS011;8539;53.188;8.696;2022-07-21T14:07:26;17.05;;;13.52;;
16845;SDS011;8539;53.188;8.696;2022-07-21T14:09:52;20.95;;;14.82;;
16845;SDS011;8539;53.188;8.696;2022-07-21T14:12:18;18.23;;;15.18;;
16845;SDS011;8539;53.188;8.696;2022-07-21T14:14:45;15.30;;;13.75;;
16845;SDS011;8539;53.188;8.696;2022-07-21T14:17:13;15.30;;;13.70;;
16845;SDS011;8539;53.188;8.696;2022-07-21T14:19:39;15.98;;;14.43;;
16845;SDS011;8539;53.188;8.696;2022-07-21T14:22:06;15.13;;;13.57;;
16845;SDS011;8539;53.188;8.696;2022-07-21T14:24:32;16.48;;;14.77;;
16845;SDS011;8539;53.188;8.696;2022-07-21T14:27:16;19.98;;;12.98;;
16845;SDS011;8539;53.188;8.696;2022-07-21T14:29:42;17.30;;;13.75;;
16845;SDS011;8539;53.188;8.696;2022-07-21T14:32:09;14.93;;;13.43;;
16845;SDS011;8539;53.188;8.696;2022-07-21T14:34:35;19.13;;;14.18;;
16845;SDS011;8539;53.188;8.696;2022-07-21T14:37:01;17.08;;;13.73;;
16845;SDS011;8539;53.188;8.696;2022-07-21T14:39:28;18.40;;;13.95;;
16845;SDS011;8539;53.188;8.696;2022-07-21T14:41:54;12.02;;;10.75;;
16845;SDS011;8539;53.188;8.696;2022-07-21T14:44:21;14.93;;;12.18;;
16845;SDS011;8539;53.188;8.696;2022-07-21T14:46:47;13.65;;;12.25;;
16845;SDS011;8539;53.188;8.696;2022-07-21T14:49:13;12.98;;;11.20;;
16845;SDS011;8539;53.188;8.696;2022-07-21T14:51:39;12.95;;;11.57;;
16845;SDS011;8539;53.188;8.696;2022-07-21T14:54:06;12.85;;;10.77;;
16845;SDS011;8539;53.188;8.696;2022-07-21T14:56:32;13.05;;;10.75;;
16845;SDS011;8539;53.188;8.696;2022-07-21T14:58:58;12.50;;;11.15;;
16845;SDS011;8539;53.188;8.696;2022-07-21T15:01:24;12.95;;;11.32;;
16845;SDS011;8539;53.188;8.696;2022-07-21T15:03:51;11.70;;;10.50;;
16845;SDS011;8539;53.188;8.696;2022-07-21T15:06:17;12.10;;;10.32;;
16845;SDS011;8539;53.188;8.696;2022-07-21T15:08:44;11.75;;;10.57;;
16845;SDS011;8539;53.188;8.696;2022-07-21T15:11:10;12.13;;;10.73;;
16845;SDS011;8539;53.188;8.696;2022-07-21T15:13:36;14.20;;;10.07;;
16845;SDS011;8539;53.188;8.696;2022-07-21T15:16:02;14.05;;;11.13;;
16845;SDS011;8539;53.188;8.696;2022-07-21T15:18:29;14.65;;;12.10;;
16845;SDS011;8539;53.188;8.696;2022-07-21T15:20:55;14.63;;;12.38;;
16845;SDS011;8539;53.188;8.696;2022-07-21T15:23:21;14.73;;;11.50;;
16845;SDS011;8539;53.188;8.696;2022-07-21T15:25:48;15.65;;;12.48;;
16845;SDS011;8539;53.188;8.696;2022-07-21T15:28:14;12.15;;;10.85;;
16845;SDS011;8539;53.188;8.696;2022-07-21T15:30:40;13.57;;;11.20;;
16845;SDS011;8539;53.188;8.696;2022-07-21T15:33:06;13.38;;;11.98;;
16845;SDS011;8539;53.188;8.696;2022-07-21T15:35:32;13.07;;;11.77;;
16845;SDS011;8539;53.188;8.696;2022-07-21T15:37:58;12.80;;;10.63;;
16845;SDS011;8539;53.188;8.696;2022-07-21T15:40:24;12.48;;;9.82;;
16845;SDS011;8539;53.188;8.696;2022-07-21T15:42:51;10.55;;;6.88;;